createdAt,value
2018-12-25T00:03:11.615Z,0.85
2018-12-25T00:08:20.883Z,1.33
2018-12-25T00:13:29.993Z,1.76
2018-12-25T00:18:39.274Z,1.12
2018-12-25T00:23:48.383Z,1.51
2018-12-25T00:28:57.707Z,1.53
2018-12-25T00:34:06.806Z,0.99
2018-12-25T00:39:15.951Z,1.27
2018-12-25T00:44:25.051Z,0.54
2018-12-25T00:49:34.219Z,1.17
2018-12-25T00:54:43.343Z,1.12
2018-12-25T00:59:52.537Z,2.06
2018-12-25T01:05:01.663Z,1.01
2018-12-25T01:10:10.841Z,1.84
2018-12-25T01:15:19.937Z,0.44
2018-12-25T01:20:29.297Z,0.91
2018-12-25T01:25:38.394Z,1.39
2018-12-25T01:30:47.551Z,1.45
2018-12-25T01:35:56.637Z,3.51
2018-12-25T01:41:05.828Z,1.56
2018-12-25T01:46:14.913Z,1.29
2018-12-25T01:51:24.121Z,1.66
2018-12-25T01:56:33.214Z,2.31
2018-12-25T02:01:42.445Z,1.74
2018-12-25T02:06:51.554Z,2.26
2018-12-25T02:12:00.834Z,1.96
2018-12-25T02:17:09.924Z,1.55
2018-12-25T02:22:19.091Z,1.02
2018-12-25T02:27:28.157Z,1.55
2018-12-25T02:32:37.305Z,0.71
2018-12-25T02:37:46.522Z,1.88
2018-12-25T02:42:55.670Z,1.00
2018-12-25T02:48:04.806Z,1.06
2018-12-25T02:53:14.144Z,0.98
2018-12-25T02:58:23.253Z,1.07
2018-12-25T03:03:32.421Z,0.87
2018-12-25T03:08:41.544Z,2.83
2018-12-25T03:13:50.794Z,1.35
2018-12-25T03:18:59.905Z,1.93
2018-12-25T03:24:09.081Z,1.22
2018-12-25T03:29:18.241Z,0.72
2018-12-25T03:34:27.392Z,0.95
2018-12-25T03:39:36.495Z,2.49
2018-12-25T03:44:45.650Z,1.38
2018-12-25T03:49:54.746Z,1.03
2018-12-25T03:55:03.992Z,2.39
2018-12-25T04:00:13.098Z,2.35
2018-12-25T04:05:22.401Z,1.47
2018-12-25T04:10:31.493Z,1.41
2018-12-25T04:15:40.621Z,1.47
2018-12-25T04:20:49.753Z,1.32
2018-12-25T04:25:58.898Z,1.10
2018-12-25T04:31:07.994Z,1.23
2018-12-25T04:36:17.211Z,3.06
2018-12-25T04:41:26.352Z,1.89
2018-12-25T04:46:35.496Z,3.07
2018-12-25T04:51:44.590Z,2.12
2018-12-25T04:56:53.740Z,2.06
2018-12-25T05:02:02.854Z,4.55
2018-12-25T05:07:12.214Z,2.67
2018-12-25T05:12:21.306Z,2.03
2018-12-25T05:17:30.450Z,3.76
2018-12-25T05:22:39.608Z,3.09
2018-12-25T05:27:48.842Z,2.42
2018-12-25T05:32:57.962Z,2.58
2018-12-25T05:38:07.259Z,1.92
2018-12-25T05:43:16.361Z,2.31
2018-12-25T05:48:25.512Z,2.54
2018-12-25T05:53:34.606Z,3.73
2018-12-25T05:58:43.792Z,2.67
2018-12-25T06:03:52.905Z,2.82
2018-12-25T06:09:02.068Z,3.74
2018-12-25T06:14:11.193Z,4.05
2018-12-25T06:19:20.352Z,3.20
2018-12-25T06:24:29.454Z,4.55
2018-12-25T06:29:38.749Z,3.06
2018-12-25T06:34:47.972Z,1.85
2018-12-25T06:39:57.238Z,2.53
2018-12-25T06:45:06.336Z,2.37
2018-12-25T06:50:15.464Z,3.20
2018-12-25T06:55:24.561Z,3.63
2018-12-25T07:00:33.760Z,2.87
2018-12-25T07:05:42.856Z,3.21
2018-12-25T07:10:52.113Z,3.60
2018-12-25T07:16:01.265Z,3.42
2018-12-25T07:21:12.215Z,3.05
2018-12-25T07:26:19.079Z,3.89
2018-12-25T07:31:28.373Z,3.94
2018-12-25T07:36:37.450Z,4.79
2018-12-25T07:41:46.635Z,5.02
2018-12-25T07:46:55.736Z,4.44
2018-12-25T07:52:05.004Z,5.59
2018-12-25T07:57:14.107Z,6.88
2018-12-25T08:02:23.253Z,5.05
2018-12-25T08:07:32.401Z,7.47
2018-12-25T08:12:41.694Z,6.12
2018-12-25T08:17:50.790Z,7.67
2018-12-25T08:23:02.691Z,7.60
2018-12-25T08:28:08.872Z,8.04
2018-12-25T08:33:18.605Z,7.61
2018-12-25T08:38:26.826Z,8.96
2018-12-25T08:43:36.009Z,9.75
2018-12-25T08:48:45.156Z,10.28
2018-12-25T08:53:54.543Z,8.73
2018-12-25T08:59:03.643Z,10.44
2018-12-25T09:04:12.975Z,10.85
2018-12-25T09:09:22.146Z,10.21
2018-12-25T09:14:31.329Z,11.51
2018-12-25T09:19:40.425Z,9.25
2018-12-25T09:24:49.750Z,12.61
2018-12-25T09:29:58.923Z,13.67
2018-12-25T09:35:08.069Z,11.95
2018-12-25T09:40:17.197Z,14.38
2018-12-25T09:45:26.479Z,14.47
2018-12-25T09:50:35.584Z,14.79
2018-12-25T09:55:44.838Z,14.99
2018-12-25T10:00:53.940Z,18.13
2018-12-25T10:06:03.081Z,18.71
2018-12-25T10:11:12.194Z,17.63
2018-12-25T10:16:21.460Z,21.07
2018-12-25T10:21:30.586Z,22.19
2018-12-25T10:26:39.854Z,21.77
2018-12-25T10:31:48.956Z,20.58
2018-12-25T10:36:58.240Z,23.41
2018-12-25T10:42:07.337Z,22.20
2018-12-25T10:47:16.534Z,19.21
2018-12-25T10:52:25.687Z,17.58
2018-12-25T10:57:34.866Z,17.20
2018-12-25T11:02:44.023Z,20.30
2018-12-25T11:07:53.205Z,15.24
2018-12-25T11:13:02.518Z,13.69
2018-12-25T11:18:11.710Z,13.46
2018-12-25T11:23:20.811Z,10.88
2018-12-25T11:28:30.046Z,11.00
2018-12-25T11:33:39.197Z,9.97
2018-12-25T11:38:48.410Z,10.42
2018-12-25T11:43:57.572Z,9.97
2018-12-25T11:49:06.720Z,12.50
2018-12-25T11:54:15.859Z,13.65
2018-12-25T11:59:25.075Z,11.55
2018-12-25T12:04:34.186Z,9.57
2018-12-25T12:09:43.362Z,11.86
2018-12-25T12:14:52.491Z,10.91
2018-12-25T12:20:01.665Z,12.48
2018-12-25T12:25:10.811Z,10.85
2018-12-25T12:30:20.004Z,11.32
2018-12-25T12:35:29.164Z,10.39
2018-12-25T12:40:40.456Z,11.71
2018-12-25T12:45:47.097Z,11.12
2018-12-25T12:50:56.249Z,9.91
2018-12-25T12:56:05.382Z,10.46
2018-12-25T13:01:14.694Z,10.25
2018-12-25T13:06:23.830Z,10.68
2018-12-25T13:11:33.069Z,10.46
2018-12-25T13:16:42.242Z,11.88
2018-12-25T13:21:51.468Z,11.83
2018-12-25T13:27:00.612Z,12.60
2018-12-25T13:32:09.794Z,12.37
2018-12-25T13:37:18.977Z,11.69
2018-12-25T13:42:28.130Z,8.73
2018-12-25T13:47:37.281Z,9.02
2018-12-25T13:52:46.462Z,10.81
2018-12-25T13:57:55.607Z,9.06
2018-12-25T14:03:04.769Z,10.07
2018-12-25T14:08:13.924Z,9.64
2018-12-25T14:13:23.097Z,11.68
2018-12-25T14:18:32.229Z,12.24
2018-12-25T14:23:41.529Z,11.74
2018-12-25T14:28:50.698Z,12.86
2018-12-25T14:33:59.858Z,12.31
2018-12-25T14:39:09.001Z,12.64
2018-12-25T14:44:18.121Z,14.52
2018-12-25T14:49:27.216Z,12.93
2018-12-25T14:54:36.600Z,9.49
2018-12-25T14:59:45.737Z,12.90
2018-12-25T15:04:55.062Z,13.28
2018-12-25T15:10:04.187Z,14.27
2018-12-25T15:15:13.401Z,15.72
2018-12-25T15:20:22.634Z,16.02
2018-12-25T15:25:31.991Z,17.33
2018-12-25T15:30:41.093Z,15.60
2018-12-25T15:35:50.266Z,15.60
2018-12-25T15:40:59.371Z,14.19
2018-12-25T15:46:08.536Z,16.04
2018-12-25T15:51:17.693Z,15.73
2018-12-25T15:56:26.854Z,18.27
2018-12-25T16:01:36.032Z,20.18
2018-12-25T16:06:45.354Z,23.66
2018-12-25T16:11:54.436Z,21.69
2018-12-25T16:17:03.586Z,22.16
2018-12-25T16:22:12.713Z,21.56
2018-12-25T16:27:21.943Z,21.82
2018-12-25T16:32:31.066Z,24.25
2018-12-25T16:37:40.216Z,23.29
2018-12-25T16:42:49.298Z,21.49
2018-12-25T16:47:58.755Z,27.55
2018-12-25T16:53:07.137Z,24.12
2018-12-25T16:58:16.293Z,20.85
2018-12-25T17:03:25.505Z,20.10
2018-12-25T17:08:34.558Z,25.63
2018-12-25T17:13:43.675Z,20.68
2018-12-25T17:18:52.861Z,21.72
2018-12-25T17:24:02.514Z,21.95
2018-12-25T17:29:10.741Z,20.58
2018-12-25T17:34:19.864Z,24.50
2018-12-25T17:39:29.068Z,25.37
2018-12-25T17:44:38.185Z,22.26
2018-12-25T17:49:47.374Z,23.10
2018-12-25T17:54:56.489Z,25.18
2018-12-25T18:00:05.616Z,27.17
2018-12-25T18:05:14.724Z,23.76
2018-12-25T18:10:23.869Z,24.52
2018-12-25T18:15:32.976Z,21.61
2018-12-25T18:20:42.233Z,27.93
2018-12-25T18:25:51.292Z,22.55
2018-12-25T18:31:00.601Z,26.01
2018-12-25T18:36:09.707Z,22.52
2018-12-25T18:41:18.865Z,23.79
2018-12-25T18:46:28.019Z,21.61
2018-12-25T18:51:37.165Z,26.40
2018-12-25T18:56:46.311Z,25.94
2018-12-25T19:01:55.661Z,23.07
2018-12-25T19:07:04.820Z,21.76
2018-12-25T19:12:14.048Z,22.06
2018-12-25T19:17:23.162Z,21.82
2018-12-25T19:22:32.451Z,21.33
2018-12-25T19:27:41.598Z,21.12
2018-12-25T19:32:50.876Z,20.87
2018-12-25T19:38:00.040Z,22.81
2018-12-25T19:43:09.344Z,23.18
2018-12-25T19:48:18.459Z,20.50
2018-12-25T19:53:27.713Z,20.86
2018-12-25T19:58:36.841Z,20.89
2018-12-25T20:03:46.157Z,22.30
2018-12-25T20:08:55.281Z,18.29
2018-12-25T20:14:04.540Z,19.80
2018-12-25T20:19:13.656Z,19.15
2018-12-25T20:24:22.837Z,22.73
2018-12-25T20:29:31.926Z,19.60
2018-12-25T20:34:41.145Z,17.37
2018-12-25T20:39:50.269Z,17.71
2018-12-25T20:44:59.466Z,18.68
2018-12-25T20:50:08.566Z,18.72
2018-12-25T20:55:17.850Z,20.60
2018-12-25T21:00:25.502Z,21.91
2018-12-25T21:05:34.722Z,19.67
2018-12-25T21:10:43.839Z,17.56
2018-12-25T21:15:53.016Z,19.30
2018-12-25T21:21:02.208Z,21.84
2018-12-25T21:26:11.474Z,19.76
2018-12-25T21:31:20.606Z,21.86
2018-12-25T21:36:29.757Z,17.26
2018-12-25T21:41:39.047Z,16.45
2018-12-25T21:46:48.315Z,22.69
2018-12-25T21:51:57.448Z,22.68
2018-12-25T21:57:06.778Z,22.23
2018-12-25T22:02:15.946Z,20.84
2018-12-25T22:07:25.089Z,24.07
2018-12-25T22:12:34.204Z,23.68
2018-12-25T22:17:43.381Z,20.67
2018-12-25T22:22:52.502Z,20.21
2018-12-25T22:28:01.685Z,19.09
2018-12-25T22:33:10.834Z,23.61
2018-12-25T22:38:20.101Z,23.38
2018-12-25T22:43:29.233Z,24.20
2018-12-25T22:48:38.458Z,23.50
2018-12-25T22:53:47.563Z,21.62
2018-12-25T22:58:56.684Z,17.43
2018-12-25T23:04:05.791Z,21.47
2018-12-25T23:09:15.137Z,22.94
2018-12-25T23:14:24.217Z,19.83
2018-12-25T23:19:33.378Z,23.05
2018-12-25T23:24:42.451Z,21.25
2018-12-25T23:29:51.626Z,18.32
2018-12-25T23:35:00.764Z,21.32
2018-12-25T23:40:09.931Z,20.97
2018-12-25T23:45:19.090Z,20.47
2018-12-25T23:50:28.271Z,21.44
2018-12-25T23:55:37.402Z,21.73
